Vision — WDF6306 — position and weather

sailwx.info

Track history (hours):
 
Tides and Currents Weather Stations Pressure Air Temp Water Temp Dewpoint Dewpoint Depression Visibility Wind Speed Wind Dir Waves Ship Positions

Vision

Owner: INTREPID SHIP MANAGEMENT, JACKSONVILLE, FL. More information available from US FCC via Universal Licensing System and Coast Guard Vessel Documentation Center.

Last reported at 2014-Oct-23 13:24 UTC. Time now 2014-Oct-23 14:31 UTC.
Position N 37°34' W 123°33'.

Length 199 m; draft 8.5 m.

Type: Towing. MMSI: 366904000.

Date/timePositionNaut miles runAvg speedWind from/ knotsBaromVisibWave heightAir tempDewpointWater temp
2014-Oct-23 13:24N 37°34' W 123°33'10 9.4
2014-Oct-23 12:23N 37°40' W 123°42'8 9.4
2014-Oct-23 11:33N 37°46' W 123°49'9 9.4
2014-Oct-23 10:33N 37°52' W 123°58'  
2014-Oct-21 04:31N 46°09' W 124°20'9 9.3
2014-Oct-21 03:33N 46°12' W 124°08'7 6.5
2014-Oct-21 02:33N 46°14' W 123°59'910.1
2014-Oct-21 01:39N 46°13' W 123°46'113.2
2014-Oct-21 01:33N 46°14' W 123°44'1312.3
2014-Oct-21 00:32N 46°14' W 123°26'11 0.5
2014-Oct-20 03:28N 46°11' W 123°11'0 0.0
2014-Oct-20 02:28N 46°11' W 123°11'0 0.0
2014-Oct-20 01:28N 46°11' W 123°11'0 0.0
2014-Oct-20 00:28N 46°11' W 123°11'0 0.0
2014-Oct-19 23:28N 46°11' W 123°11'0 0.0
2014-Oct-19 22:28N 46°11' W 123°11'0 0.0
2014-Oct-19 21:28N 46°11' W 123°11'0 0.0
2014-Oct-19 20:28N 46°11' W 123°11'0 0.0
2014-Oct-19 19:28N 46°11' W 123°11'0 0.0
2014-Oct-19 18:28N 46°11' W 123°11'0 0.0
2014-Oct-19 17:28N 46°11' W 123°11'0 0.0
2014-Oct-19 16:22N 46°11' W 123°11'0 0.0
2014-Oct-19 15:28N 46°11' W 123°11'0 0.0
2014-Oct-19 14:28N 46°11' W 123°11'0 0.0
2014-Oct-19 13:28N 46°11' W 123°11'0 0.0
2014-Oct-19 12:28N 46°11' W 123°11'0 0.0
2014-Oct-19 11:28N 46°11' W 123°11'0 0.0
2014-Oct-19 10:28N 46°11' W 123°11'0 0.0
2014-Oct-19 09:28N 46°11' W 123°11'0 0.0
2014-Oct-19 08:28N 46°11' W 123°11'  
2014-Oct-14 21:04N 38°24' W 124°26'712.5
2014-Oct-14 20:29N 38°20' W 124°18'1212.7
2014-Oct-14 19:33N 38°14' W 124°06'1212.5
2014-Oct-14 18:33N 38°06' W 123°53'1312.4
2014-Oct-14 17:33N 37°58' W 123°41'1110.6
2014-Oct-14 16:33N 37°50' W 123°32'1111.0
2014-Oct-14 15:33N 37°45' W 123°19'1212.1
2014-Oct-14 14:33N 37°37' W 123°08'10 9.6
2014-Oct-14 13:33N 37°38' W 122°56'1211.7
2014-Oct-14 12:33N 37°45' W 122°44'1010.3
2014-Oct-14 11:33N 37°48' W 122°32'8 8.5
2014-Oct-14 10:33N 37°47' W 122°21'1 0.7
2014-Oct-14 09:34N 37°46' W 122°21'0 0.0
2014-Oct-14 08:34N 37°46' W 122°21'0 0.0
2014-Oct-14 07:34N 37°46' W 122°21'0 0.1
2014-Oct-14 06:33N 37°46' W 122°21'0 0.1
2014-Oct-14 05:33N 37°46' W 122°21'0 0.0
2014-Oct-14 04:33N 37°46' W 122°21'0 0.0
2014-Oct-14 03:33N 37°46' W 122°21'0 0.0
2014-Oct-14 02:33N 37°46' W 122°21'0 0.1
2014-Oct-14 01:30N 37°46' W 122°21'0 0.1
2014-Oct-14 00:33N 37°46' W 122°21'0 0.2
2014-Oct-13 23:33N 37°46' W 122°21'0 0.1
2014-Oct-13 22:33N 37°46' W 122°21'0 0.0
2014-Oct-13 21:33N 37°46' W 122°21'4 3.8
2014-Oct-13 20:33N 37°49' W 122°23'1110.9
2014-Oct-13 19:33N 37°60' W 122°25'1311.5
2014-Oct-13 18:28N 38°02' W 122°09'1 1.1
2014-Oct-13 17:29N 38°02' W 122°08'0 0.0
2014-Oct-13 16:29N 38°02' W 122°08'0 0.0
2014-Oct-13 15:29N 38°02' W 122°08'0 0.0
2014-Oct-13 14:29N 38°02' W 122°08'0 0.0
2014-Oct-13 13:29N 38°02' W 122°08'  
Track history (hours):
 
Tides and Currents Weather Stations Pressure Air Temp Water Temp Dewpoint Dewpoint Depression Visibility Wind Speed Wind Dir Waves Ship Positions

Vision

Owner: INTREPID SHIP MANAGEMENT, JACKSONVILLE, FL. More information available from US FCC via Universal Licensing System and Coast Guard Vessel Documentation Center.

Last reported at 2014-Oct-23 13:24 UTC. Time now 2014-Oct-23 14:31 UTC.
Position N 37°34' W 123°33'.

Length 199 m; draft 8.5 m.

Type: Towing. MMSI: 366904000.

Date/timePositionNaut miles runAvg speedWind from/ knotsBaromVisibWave heightAir tempDewpointWater temp
2014-Oct-23 13:24N 37°34' W 123°33'10 9.4
2014-Oct-23 12:23N 37°40' W 123°42'8 9.4
2014-Oct-23 11:33N 37°46' W 123°49'9 9.4
2014-Oct-23 10:33N 37°52' W 123°58'  
2014-Oct-21 04:31N 46°09' W 124°20'9 9.3
2014-Oct-21 03:33N 46°12' W 124°08'7 6.5
2014-Oct-21 02:33N 46°14' W 123°59'910.1
2014-Oct-21 01:39N 46°13' W 123°46'113.2
2014-Oct-21 01:33N 46°14' W 123°44'1312.3
2014-Oct-21 00:32N 46°14' W 123°26'11 0.5
2014-Oct-20 03:28N 46°11' W 123°11'0 0.0
2014-Oct-20 02:28N 46°11' W 123°11'0 0.0
2014-Oct-20 01:28N 46°11' W 123°11'0 0.0
2014-Oct-20 00:28N 46°11' W 123°11'0 0.0
2014-Oct-19 23:28N 46°11' W 123°11'0 0.0
2014-Oct-19 22:28N 46°11' W 123°11'0 0.0
2014-Oct-19 21:28N 46°11' W 123°11'0 0.0
2014-Oct-19 20:28N 46°11' W 123°11'0 0.0
2014-Oct-19 19:28N 46°11' W 123°11'0 0.0
2014-Oct-19 18:28N 46°11' W 123°11'0 0.0
2014-Oct-19 17:28N 46°11' W 123°11'0 0.0
2014-Oct-19 16:22N 46°11' W 123°11'0 0.0
2014-Oct-19 15:28N 46°11' W 123°11'0 0.0
2014-Oct-19 14:28N 46°11' W 123°11'0 0.0
2014-Oct-19 13:28N 46°11' W 123°11'0 0.0
2014-Oct-19 12:28N 46°11' W 123°11'0 0.0
2014-Oct-19 11:28N 46°11' W 123°11'0 0.0
2014-Oct-19 10:28N 46°11' W 123°11'0 0.0
2014-Oct-19 09:28N 46°11' W 123°11'0 0.0
2014-Oct-19 08:28N 46°11' W 123°11'  
2014-Oct-14 21:04N 38°24' W 124°26'712.5
2014-Oct-14 20:29N 38°20' W 124°18'1212.7
2014-Oct-14 19:33N 38°14' W 124°06'1212.5
2014-Oct-14 18:33N 38°06' W 123°53'1312.4
2014-Oct-14 17:33N 37°58' W 123°41'1110.6
2014-Oct-14 16:33N 37°50' W 123°32'1111.0
2014-Oct-14 15:33N 37°45' W 123°19'1212.1
2014-Oct-14 14:33N 37°37' W 123°08'10 9.6
2014-Oct-14 13:33N 37°38' W 122°56'1211.7
2014-Oct-14 12:33N 37°45' W 122°44'1010.3
2014-Oct-14 11:33N 37°48' W 122°32'8 8.5
2014-Oct-14 10:33N 37°47' W 122°21'1 0.7
2014-Oct-14 09:34N 37°46' W 122°21'0 0.0
2014-Oct-14 08:34N 37°46' W 122°21'0 0.0
2014-Oct-14 07:34N 37°46' W 122°21'0 0.1
2014-Oct-14 06:33N 37°46' W 122°21'0 0.1
2014-Oct-14 05:33N 37°46' W 122°21'0 0.0
2014-Oct-14 04:33N 37°46' W 122°21'0 0.0
2014-Oct-14 03:33N 37°46' W 122°21'0 0.0
2014-Oct-14 02:33N 37°46' W 122°21'0 0.1
2014-Oct-14 01:30N 37°46' W 122°21'0 0.1
2014-Oct-14 00:33N 37°46' W 122°21'0 0.2
2014-Oct-13 23:33N 37°46' W 122°21'0 0.1
2014-Oct-13 22:33N 37°46' W 122°21'0 0.0
2014-Oct-13 21:33N 37°46' W 122°21'4 3.8
2014-Oct-13 20:33N 37°49' W 122°23'1110.9
2014-Oct-13 19:33N 37°60' W 122°25'1311.5
2014-Oct-13 18:28N 38°02' W 122°09'1 1.1
2014-Oct-13 17:29N 38°02' W 122°08'0 0.0
2014-Oct-13 16:29N 38°02' W 122°08'0 0.0
2014-Oct-13 15:29N 38°02' W 122°08'0 0.0
2014-Oct-13 14:29N 38°02' W 122°08'0 0.0
2014-Oct-13 13:29N 38°02' W 122°08'  

Dump ship's entire track history